createdAt,value
2022-08-28T00:02:05.228Z,16.08
2022-08-28T00:04:33.287Z,15.97
2022-08-28T00:07:03.039Z,15.88
2022-08-28T00:09:31.006Z,15.80
2022-08-28T00:11:58.872Z,15.74
2022-08-28T00:14:27.047Z,16.01
2022-08-28T00:16:55.117Z,16.88
2022-08-28T00:19:24.781Z,17.63
2022-08-28T00:21:52.794Z,18.13
2022-08-28T00:24:20.605Z,18.48
2022-08-28T00:27:07.161Z,18.75
2022-08-28T00:29:35.023Z,19.05
2022-08-28T00:32:03.532Z,19.30
2022-08-28T00:34:33.863Z,19.49
2022-08-28T00:37:02.147Z,19.62
2022-08-28T00:39:30.078Z,19.73
2022-08-28T00:41:58.957Z,19.34
2022-08-28T00:44:28.063Z,18.57
2022-08-28T00:46:57.669Z,17.96
2022-08-28T00:49:36.020Z,17.53
2022-08-28T00:52:05.954Z,17.19
2022-08-28T00:54:41.721Z,16.93
2022-08-28T00:57:34.559Z,16.65
2022-08-28T01:00:08.165Z,16.42
2022-08-28T01:02:36.351Z,16.21
2022-08-28T01:05:08.983Z,16.05
2022-08-28T01:07:37.530Z,15.90
2022-08-28T01:10:11.225Z,15.75
2022-08-28T01:12:39.199Z,15.60
2022-08-28T01:15:13.911Z,15.69
2022-08-28T01:18:07.847Z,16.48
2022-08-28T01:20:38.553Z,17.25
2022-08-28T01:23:24.580Z,17.74
2022-08-28T01:25:52.702Z,18.14
2022-08-28T01:28:20.560Z,18.43
2022-08-28T01:30:49.417Z,18.69
2022-08-28T01:33:17.522Z,18.92
2022-08-28T01:35:47.728Z,19.11
2022-08-28T01:38:17.594Z,19.28
2022-08-28T01:40:53.459Z,19.40
2022-08-28T01:43:23.868Z,19.12
2022-08-28T01:45:55.213Z,18.31
2022-08-28T01:48:25.913Z,17.62
2022-08-28T01:50:53.971Z,17.10
2022-08-28T01:53:24.948Z,16.70
2022-08-28T01:55:54.442Z,16.36
2022-08-28T01:58:23.214Z,16.09
2022-08-28T02:00:54.186Z,15.85
2022-08-28T02:03:23.657Z,15.65
2022-08-28T02:05:51.651Z,15.84
2022-08-28T02:08:20.306Z,16.55
2022-08-28T02:10:49.231Z,17.15
2022-08-28T02:13:17.269Z,17.57
2022-08-28T02:15:46.307Z,17.84
2022-08-28T02:18:14.748Z,18.08
2022-08-28T02:20:43.325Z,18.31
2022-08-28T02:23:11.597Z,18.52
2022-08-28T02:25:39.976Z,18.71
2022-08-28T02:28:08.179Z,18.78
2022-08-28T02:30:36.890Z,18.65
2022-08-28T02:33:04.804Z,17.93
2022-08-28T02:35:32.880Z,17.24
2022-08-28T02:38:01.762Z,16.74
2022-08-28T02:40:30.289Z,16.38
2022-08-28T02:42:58.620Z,16.09
2022-08-28T02:45:26.593Z,15.83
2022-08-28T02:47:57.116Z,15.59
2022-08-28T02:50:25.087Z,15.39
2022-08-28T02:52:53.663Z,15.21
2022-08-28T02:55:22.047Z,15.50
2022-08-28T02:57:50.013Z,16.22
2022-08-28T03:00:22.285Z,16.77
2022-08-28T03:02:50.733Z,17.18
2022-08-28T03:05:23.317Z,17.48
2022-08-28T03:07:53.767Z,17.70
2022-08-28T03:10:22.040Z,17.90
2022-08-28T03:12:50.010Z,18.07
2022-08-28T03:15:18.320Z,18.22
2022-08-28T03:17:46.253Z,18.31
2022-08-28T03:20:16.374Z,18.36
2022-08-28T03:23:02.706Z,17.89
2022-08-28T03:25:30.643Z,17.00
2022-08-28T03:27:58.605Z,16.41
2022-08-28T03:30:26.491Z,15.99
2022-08-28T03:32:54.440Z,15.67
2022-08-28T03:35:22.409Z,15.42
2022-08-28T03:37:50.723Z,15.17
2022-08-28T03:40:20.383Z,14.94
2022-08-28T03:42:53.141Z,14.75
2022-08-28T03:45:22.003Z,14.58
2022-08-28T03:47:50.939Z,14.46
2022-08-28T03:50:19.884Z,14.37
2022-08-28T03:52:47.913Z,14.28
2022-08-28T03:55:15.814Z,14.19
2022-08-28T03:57:43.850Z,14.34
2022-08-28T04:00:13.452Z,15.18
2022-08-28T04:02:42.688Z,16.01
2022-08-28T04:05:11.252Z,16.63
2022-08-28T04:07:40.441Z,17.11
2022-08-28T04:10:09.332Z,17.55
2022-08-28T04:12:37.703Z,17.97
2022-08-28T04:15:07.211Z,18.36
2022-08-28T04:17:38.763Z,18.73
2022-08-28T04:20:08.532Z,18.90
2022-08-28T04:22:37.465Z,18.41
2022-08-28T04:25:06.559Z,17.91
2022-08-28T04:27:34.526Z,17.56
2022-08-28T04:30:02.496Z,17.28
2022-08-28T04:32:30.670Z,17.07
2022-08-28T04:34:58.701Z,16.93
2022-08-28T04:37:27.959Z,16.87
2022-08-28T04:39:56.146Z,16.93
2022-08-28T04:42:24.287Z,17.06
2022-08-28T04:44:59.213Z,17.25
2022-08-28T04:47:27.899Z,18.00
2022-08-28T04:49:55.870Z,19.16
2022-08-28T04:52:23.834Z,20.19
2022-08-28T04:54:51.802Z,20.92
2022-08-28T04:57:19.697Z,21.00
2022-08-28T04:59:48.054Z,21.02
2022-08-28T05:02:16.043Z,21.17
2022-08-28T05:04:44.320Z,21.46
2022-08-28T05:07:12.208Z,21.82
2022-08-28T05:09:40.119Z,22.19
2022-08-28T05:12:08.120Z,22.57
2022-08-28T05:14:36.809Z,22.96
2022-08-28T05:17:04.957Z,23.44
2022-08-28T05:19:32.845Z,24.01
2022-08-28T05:22:00.812Z,24.62
2022-08-28T05:24:28.955Z,25.22
2022-08-28T05:26:57.709Z,25.81
2022-08-28T05:29:25.926Z,26.36
2022-08-28T05:31:53.962Z,26.90
2022-08-28T05:34:22.019Z,27.38
2022-08-28T05:36:50.024Z,27.85
2022-08-28T05:39:18.094Z,28.35
2022-08-28T05:41:46.406Z,28.87
2022-08-28T05:44:15.645Z,29.30
2022-08-28T05:46:44.996Z,29.57
2022-08-28T05:49:13.693Z,29.76
2022-08-28T05:51:42.272Z,29.97
2022-08-28T05:54:10.616Z,30.14
2022-08-28T05:56:40.116Z,30.47
2022-08-28T05:59:08.908Z,30.98
2022-08-28T06:01:40.890Z,31.52
2022-08-28T06:04:14.766Z,32.10
2022-08-28T06:06:43.084Z,32.69
2022-08-28T06:09:29.096Z,33.31
2022-08-28T06:11:59.782Z,33.92
2022-08-28T06:14:27.846Z,34.44
2022-08-28T06:16:56.716Z,34.99
2022-08-28T06:19:26.188Z,35.54
2022-08-28T06:21:58.386Z,36.04
2022-08-28T06:24:28.069Z,36.46
2022-08-28T06:26:58.682Z,36.78
2022-08-28T06:29:27.583Z,37.04
2022-08-28T06:31:58.278Z,37.31
2022-08-28T06:34:27.056Z,37.67
2022-08-28T06:36:55.331Z,38.07
2022-08-28T06:39:23.354Z,38.50
2022-08-28T06:41:51.470Z,38.70
2022-08-28T06:44:20.621Z,38.74
2022-08-28T06:46:50.830Z,38.98
2022-08-28T06:49:18.963Z,39.17
2022-08-28T06:51:47.116Z,39.34
2022-08-28T06:54:22.290Z,39.60
2022-08-28T06:56:52.197Z,39.97
2022-08-28T06:59:20.240Z,40.19
2022-08-28T07:01:48.171Z,40.16
2022-08-28T07:04:16.295Z,40.17
2022-08-28T07:06:53.694Z,40.21
2022-08-28T07:09:23.419Z,40.40
2022-08-28T07:11:51.481Z,40.66
2022-08-28T07:14:19.317Z,40.47
2022-08-28T07:16:47.318Z,40.17
2022-08-28T07:19:15.179Z,40.06
2022-08-28T07:21:44.863Z,39.96
2022-08-28T07:24:13.397Z,40.18
2022-08-28T07:26:41.776Z,40.43
2022-08-28T07:29:11.469Z,40.79
2022-08-28T07:31:44.080Z,41.20
2022-08-28T07:34:12.300Z,41.31
2022-08-28T07:36:40.579Z,41.49
2022-08-28T07:39:08.876Z,41.81
2022-08-28T07:41:39.325Z,42.14
2022-08-28T07:44:26.627Z,42.55
2022-08-28T07:46:55.767Z,43.05
2022-08-28T07:49:24.196Z,43.26
2022-08-28T07:51:54.009Z,43.08
2022-08-28T07:54:23.455Z,42.86
2022-08-28T07:56:51.815Z,42.60
2022-08-28T07:59:20.536Z,42.26
2022-08-28T08:01:51.597Z,41.91
2022-08-28T08:04:20.570Z,41.66
2022-08-28T08:06:48.585Z,41.11
2022-08-28T08:09:18.182Z,40.38
2022-08-28T08:11:46.814Z,39.55
2022-08-28T08:14:16.278Z,38.53
2022-08-28T08:16:45.194Z,37.64
2022-08-28T08:19:14.189Z,36.91
2022-08-28T08:21:47.199Z,36.34
2022-08-28T08:24:20.885Z,35.60
2022-08-28T08:26:59.278Z,34.86
2022-08-28T08:29:31.891Z,34.21
2022-08-28T08:32:06.235Z,33.74
2022-08-28T08:34:38.670Z,33.51
2022-08-28T08:37:06.809Z,33.35
2022-08-28T08:39:35.484Z,33.13
2022-08-28T08:42:05.606Z,32.90
2022-08-28T08:44:43.430Z,32.60
2022-08-28T08:47:51.359Z,32.29
2022-08-28T08:50:28.534Z,32.05
2022-08-28T08:53:28.583Z,31.98
2022-08-28T08:55:57.155Z,32.03
2022-08-28T08:58:36.301Z,32.01
2022-08-28T09:01:35.185Z,31.80
2022-08-28T09:04:23.132Z,31.57
2022-08-28T09:07:09.296Z,31.44
2022-08-28T09:10:04.341Z,31.43
2022-08-28T09:12:51.305Z,31.53
2022-08-28T09:15:34.664Z,31.58
2022-08-28T09:18:26.345Z,31.71
2022-08-28T09:20:58.293Z,31.86
2022-08-28T09:23:29.886Z,31.94
2022-08-28T09:26:09.287Z,31.91
2022-08-28T09:28:42.034Z,31.90
2022-08-28T09:31:15.859Z,31.87
2022-08-28T09:33:54.088Z,31.90
2022-08-28T09:36:36.774Z,31.96
2022-08-28T09:39:24.790Z,31.90
2022-08-28T09:42:33.079Z,31.82
2022-08-28T09:45:27.387Z,31.82
2022-08-28T09:47:59.411Z,31.75
2022-08-28T09:50:35.713Z,31.60
2022-08-28T09:53:09.704Z,31.50
2022-08-28T09:56:07.055Z,31.47
2022-08-28T09:58:44.584Z,31.40
2022-08-28T10:01:45.220Z,31.33
2022-08-28T10:04:37.117Z,31.30
2022-08-28T10:07:11.086Z,31.22
2022-08-28T10:09:40.558Z,31.25
2022-08-28T10:13:01.619Z,31.33
2022-08-28T10:15:50.026Z,31.42
2022-08-28T10:19:07.724Z,31.49
2022-08-28T10:21:47.672Z,31.60
2022-08-28T10:24:46.404Z,31.43
2022-08-28T10:27:46.173Z,31.48
2022-08-28T10:30:17.726Z,31.71
2022-08-28T10:33:26.077Z,31.77
2022-08-28T10:36:02.596Z,31.69
2022-08-28T10:38:43.466Z,31.65
2022-08-28T10:41:19.344Z,31.60
2022-08-28T10:43:52.712Z,31.64
2022-08-28T10:46:42.711Z,31.81
2022-08-28T10:49:34.815Z,32.01
2022-08-28T10:52:10.546Z,32.14
2022-08-28T10:54:43.957Z,32.16
2022-08-28T10:57:39.230Z,32.11
2022-08-28T11:00:14.675Z,32.09
2022-08-28T11:02:47.412Z,32.13
2022-08-28T11:05:20.011Z,32.05
2022-08-28T11:07:51.263Z,32.06
2022-08-28T11:10:37.169Z,32.17
2022-08-28T11:13:06.903Z,32.40
2022-08-28T11:15:37.328Z,32.55
2022-08-28T11:18:26.140Z,32.62
2022-08-28T11:20:59.560Z,32.59
2022-08-28T11:23:42.191Z,32.49
2022-08-28T11:26:10.203Z,32.36
2022-08-28T11:28:45.727Z,32.31
2022-08-28T11:31:28.530Z,32.29
2022-08-28T11:33:59.198Z,32.30
2022-08-28T11:36:29.037Z,32.35
2022-08-28T11:38:57.752Z,32.38
2022-08-28T11:41:32.717Z,32.35
2022-08-28T11:44:09.673Z,32.40
2022-08-28T11:46:41.971Z,32.44
2022-08-28T11:49:31.730Z,32.51
2022-08-28T11:52:33.509Z,32.61
2022-08-28T11:55:24.878Z,32.59
2022-08-28T11:58:14.477Z,32.56
2022-08-28T12:00:55.128Z,32.53
2022-08-28T12:03:35.575Z,32.53
2022-08-28T12:06:03.949Z,32.63
2022-08-28T12:08:53.240Z,32.69
2022-08-28T12:11:39.301Z,32.74
2022-08-28T12:14:38.675Z,32.80
2022-08-28T12:17:09.686Z,32.95
2022-08-28T12:19:55.558Z,33.05
2022-08-28T12:22:39.600Z,33.10
2022-08-28T12:25:10.115Z,33.16
2022-08-28T12:27:38.039Z,33.27
2022-08-28T12:30:06.413Z,33.45
2022-08-28T12:32:45.747Z,33.31
2022-08-28T12:35:21.624Z,33.09
2022-08-28T12:37:56.127Z,32.91
2022-08-28T12:40:37.822Z,32.74
2022-08-28T12:43:09.308Z,32.59
2022-08-28T12:45:51.320Z,32.55
2022-08-28T12:48:53.528Z,32.62
2022-08-28T12:51:24.779Z,32.84
2022-08-28T12:53:58.580Z,33.06
2022-08-28T12:56:30.254Z,33.08
2022-08-28T12:59:33.344Z,33.07
2022-08-28T13:02:23.308Z,33.28
2022-08-28T13:05:20.544Z,33.50
2022-08-28T13:07:50.959Z,33.67
2022-08-28T13:10:25.631Z,33.71
2022-08-28T13:13:21.540Z,33.80
2022-08-28T13:16:01.707Z,33.86
2022-08-28T13:18:50.348Z,33.90
2022-08-28T13:21:34.043Z,33.80
2022-08-28T13:24:31.900Z,33.43
2022-08-28T13:27:18.096Z,33.08
2022-08-28T13:30:21.039Z,32.72
2022-08-28T13:33:22.750Z,32.47
2022-08-28T13:35:51.514Z,32.32
2022-08-28T13:38:21.485Z,32.19
2022-08-28T13:40:59.193Z,32.08
2022-08-28T13:43:30.212Z,31.98
2022-08-28T13:45:58.283Z,31.83
2022-08-28T13:48:27.337Z,31.70
2022-08-28T13:51:04.969Z,31.63
2022-08-28T13:53:33.572Z,31.58
2022-08-28T13:56:01.641Z,31.48
2022-08-28T13:58:29.677Z,31.51
2022-08-28T14:00:57.567Z,31.59
2022-08-28T14:03:41.420Z,31.62
2022-08-28T14:06:16.911Z,31.76
2022-08-28T14:08:45.789Z,31.90
2022-08-28T14:11:15.230Z,32.01
2022-08-28T14:13:47.312Z,32.10
2022-08-28T14:16:25.267Z,32.21
2022-08-28T14:18:53.670Z,32.19
2022-08-28T14:21:24.618Z,32.27
2022-08-28T14:23:52.600Z,32.41
2022-08-28T14:26:20.396Z,32.45
2022-08-28T14:28:48.215Z,32.36
2022-08-28T14:31:16.187Z,32.37
2022-08-28T14:33:45.389Z,32.34
2022-08-28T14:36:23.082Z,32.32
2022-08-28T14:38:54.010Z,32.21
2022-08-28T14:41:23.326Z,32.06
2022-08-28T14:44:09.738Z,32.04
2022-08-28T14:46:37.705Z,31.98
2022-08-28T14:49:08.512Z,31.91
2022-08-28T14:51:38.092Z,31.90
2022-08-28T14:54:06.263Z,31.91
2022-08-28T14:56:34.230Z,31.87
2022-08-28T14:59:02.648Z,31.80
2022-08-28T15:01:40.262Z,31.74
2022-08-28T15:04:15.319Z,31.62
2022-08-28T15:06:43.582Z,31.49
2022-08-28T15:09:12.431Z,31.37
2022-08-28T15:11:40.632Z,31.26
2022-08-28T15:14:09.021Z,31.15
2022-08-28T15:16:41.658Z,30.98
2022-08-28T15:19:12.344Z,30.80
2022-08-28T15:21:52.426Z,30.57
2022-08-28T15:24:24.757Z,30.37
2022-08-28T15:26:52.837Z,30.21
2022-08-28T15:29:21.178Z,30.03
2022-08-28T15:31:49.673Z,29.89
2022-08-28T15:34:25.183Z,29.76
2022-08-28T15:36:55.179Z,29.63
2022-08-28T15:39:44.440Z,29.51
2022-08-28T15:42:12.385Z,29.41
2022-08-28T15:44:40.401Z,29.31
2022-08-28T15:47:08.503Z,29.20
2022-08-28T15:49:38.907Z,29.11
2022-08-28T15:52:18.593Z,29.01
2022-08-28T15:54:47.566Z,28.93
2022-08-28T15:57:15.713Z,28.84
2022-08-28T15:59:49.994Z,28.74
2022-08-28T16:02:21.011Z,28.63
2022-08-28T16:04:49.386Z,28.53
2022-08-28T16:07:17.928Z,28.43
2022-08-28T16:09:45.776Z,28.32
2022-08-28T16:12:13.913Z,28.22
2022-08-28T16:14:41.794Z,28.10
2022-08-28T16:17:10.757Z,27.99
2022-08-28T16:19:40.361Z,27.89
2022-08-28T16:22:09.693Z,27.81
2022-08-28T16:24:37.789Z,27.68
2022-08-28T16:27:09.502Z,27.53
2022-08-28T16:29:41.621Z,27.33
2022-08-28T16:32:09.637Z,27.12
2022-08-28T16:34:40.137Z,26.91
2022-08-28T16:37:08.201Z,26.71
2022-08-28T16:39:36.421Z,26.55
2022-08-28T16:42:04.598Z,26.43
2022-08-28T16:44:32.530Z,26.34
2022-08-28T16:47:00.549Z,26.26
2022-08-28T16:49:28.649Z,26.17
2022-08-28T16:51:56.493Z,26.06
2022-08-28T16:54:24.423Z,25.91
2022-08-28T16:56:52.585Z,25.74
2022-08-28T16:59:23.309Z,25.59
2022-08-28T17:01:52.988Z,25.46
2022-08-28T17:04:22.156Z,25.36
2022-08-28T17:06:50.091Z,25.26
2022-08-28T17:09:20.984Z,25.17
2022-08-28T17:11:51.772Z,25.03
2022-08-28T17:14:23.378Z,24.84
2022-08-28T17:16:54.526Z,24.73
2022-08-28T17:19:24.493Z,24.65
2022-08-28T17:22:11.216Z,24.61
2022-08-28T17:24:40.058Z,24.53
2022-08-28T17:27:08.106Z,24.45
2022-08-28T17:29:36.459Z,24.39
2022-08-28T17:32:05.944Z,24.33
2022-08-28T17:34:35.844Z,24.28
2022-08-28T17:37:04.623Z,24.20
2022-08-28T17:39:32.598Z,24.13
2022-08-28T17:42:00.553Z,24.06
2022-08-28T17:44:28.417Z,23.97
2022-08-28T17:46:56.567Z,23.89
2022-08-28T17:49:24.665Z,23.80
2022-08-28T17:51:53.074Z,23.72
2022-08-28T17:54:22.738Z,23.66
2022-08-28T17:56:52.037Z,23.58
2022-08-28T17:59:20.292Z,23.45
2022-08-28T18:01:48.551Z,23.33
2022-08-28T18:04:23.248Z,23.20
2022-08-28T18:06:54.639Z,23.10
2022-08-28T18:09:23.477Z,23.02
2022-08-28T18:11:52.049Z,22.94
2022-08-28T18:14:20.044Z,22.88
2022-08-28T18:16:48.032Z,22.83
2022-08-28T18:19:16.575Z,22.77
2022-08-28T18:21:44.839Z,22.71
2022-08-28T18:24:13.288Z,22.64
2022-08-28T18:26:42.113Z,22.56
2022-08-28T18:29:11.663Z,22.46
2022-08-28T18:31:41.641Z,22.35
2022-08-28T18:34:10.131Z,22.24
2022-08-28T18:36:43.166Z,22.14
2022-08-28T18:39:11.233Z,22.06
2022-08-28T18:41:43.526Z,21.99
2022-08-28T18:44:14.427Z,21.95
2022-08-28T18:46:43.391Z,21.93
2022-08-28T18:49:11.610Z,21.88
2022-08-28T18:51:42.415Z,21.83
2022-08-28T18:54:16.705Z,21.79
2022-08-28T18:56:45.590Z,21.75
2022-08-28T18:59:13.521Z,21.72
2022-08-28T19:01:41.914Z,21.68
2022-08-28T19:04:09.939Z,21.64
2022-08-28T19:06:37.838Z,21.62
2022-08-28T19:09:05.799Z,21.60
2022-08-28T19:11:35.961Z,21.57
2022-08-28T19:14:04.258Z,21.55
2022-08-28T19:16:32.506Z,21.53
2022-08-28T19:19:01.847Z,21.51
2022-08-28T19:21:30.358Z,21.48
2022-08-28T19:23:58.569Z,21.45
2022-08-28T19:26:27.010Z,21.43
2022-08-28T19:28:55.155Z,21.41
2022-08-28T19:31:27.326Z,21.37
2022-08-28T19:33:55.513Z,21.35
2022-08-28T19:36:27.218Z,21.32
2022-08-28T19:38:55.189Z,21.30
2022-08-28T19:41:23.123Z,21.27
2022-08-28T19:43:51.251Z,21.27
2022-08-28T19:46:20.328Z,21.24
2022-08-28T19:48:49.884Z,21.19
2022-08-28T19:51:22.959Z,21.17
2022-08-28T19:53:57.175Z,21.15
2022-08-28T19:56:28.087Z,21.12
2022-08-28T19:58:58.511Z,21.10
2022-08-28T20:01:29.945Z,21.50
2022-08-28T20:03:59.145Z,22.33
2022-08-28T20:06:27.926Z,22.98
2022-08-28T20:08:55.866Z,23.46
2022-08-28T20:11:30.144Z,23.82
2022-08-28T20:14:04.408Z,24.14
2022-08-28T20:16:39.156Z,24.42
2022-08-28T20:19:13.511Z,24.67
2022-08-28T20:21:44.324Z,24.68
2022-08-28T20:24:14.847Z,24.13
2022-08-28T20:26:42.817Z,23.55
2022-08-28T20:29:10.951Z,23.10
2022-08-28T20:31:40.680Z,22.79
2022-08-28T20:34:09.542Z,22.54
2022-08-28T20:36:37.370Z,22.32
2022-08-28T20:39:07.251Z,22.10
2022-08-28T20:41:35.971Z,21.91
2022-08-28T20:44:07.872Z,21.78
2022-08-28T20:46:40.045Z,21.67
2022-08-28T20:49:10.583Z,22.13
2022-08-28T20:52:01.119Z,22.85
2022-08-28T20:54:37.040Z,23.45
2022-08-28T20:57:08.019Z,23.82
2022-08-28T20:59:40.241Z,24.05
2022-08-28T21:02:11.746Z,24.24
2022-08-28T21:04:40.296Z,24.40
2022-08-28T21:07:08.850Z,24.39
2022-08-28T21:10:04.625Z,23.82
2022-08-28T21:12:24.824Z,23.19
2022-08-28T21:14:53.079Z,22.80
2022-08-28T21:17:28.936Z,22.50
2022-08-28T21:20:00.363Z,22.27
2022-08-28T21:22:29.928Z,22.09
2022-08-28T21:24:57.677Z,21.93
2022-08-28T21:27:25.582Z,21.74
2022-08-28T21:29:58.160Z,21.53
2022-08-28T21:32:27.297Z,21.33
2022-08-28T21:34:55.338Z,21.17
2022-08-28T21:37:23.434Z,21.25
2022-08-28T21:39:52.320Z,21.98
2022-08-28T21:42:21.801Z,22.64
2022-08-28T21:44:52.054Z,23.09
2022-08-28T21:47:23.124Z,23.37
2022-08-28T21:49:56.349Z,23.55
2022-08-28T21:52:30.049Z,23.73
2022-08-28T21:55:03.003Z,23.95
2022-08-28T21:57:31.227Z,24.16
2022-08-28T21:59:59.257Z,24.34
2022-08-28T22:02:27.262Z,24.48
2022-08-28T22:04:55.156Z,24.62
2022-08-28T22:07:22.882Z,24.59
2022-08-28T22:09:50.923Z,24.05
2022-08-28T22:12:18.731Z,23.45
2022-08-28T22:14:46.794Z,22.96
2022-08-28T22:17:15.429Z,22.57
2022-08-28T22:19:46.606Z,22.23
2022-08-28T22:22:34.219Z,21.93
2022-08-28T22:25:02.315Z,21.64
2022-08-28T22:27:32.027Z,21.41
2022-08-28T22:29:59.968Z,21.22
2022-08-28T22:32:28.200Z,21.05
2022-08-28T22:34:56.192Z,20.93
2022-08-28T22:37:23.962Z,20.85
2022-08-28T22:39:51.876Z,20.78
2022-08-28T22:42:19.679Z,20.84
2022-08-28T22:44:47.590Z,21.52
2022-08-28T22:47:15.346Z,22.15
2022-08-28T22:49:46.923Z,22.61
2022-08-28T22:52:15.528Z,22.92
2022-08-28T22:54:44.555Z,23.13
2022-08-28T22:57:12.418Z,23.25
2022-08-28T22:59:40.217Z,23.39
2022-08-28T23:02:08.445Z,23.53
2022-08-28T23:04:36.429Z,23.65
2022-08-28T23:07:05.844Z,23.81
2022-08-28T23:09:35.955Z,23.96
2022-08-28T23:12:05.626Z,24.06
2022-08-28T23:14:33.931Z,24.19
2022-08-28T23:17:01.942Z,24.28
2022-08-28T23:19:30.365Z,24.33
2022-08-28T23:21:58.553Z,24.02
2022-08-28T23:24:26.662Z,23.35
2022-08-28T23:26:54.698Z,22.78
2022-08-28T23:29:22.767Z,22.32
2022-08-28T23:31:50.699Z,22.05
2022-08-28T23:34:18.743Z,22.42
2022-08-28T23:36:47.082Z,22.88
2022-08-28T23:39:14.857Z,22.91
2022-08-28T23:41:42.811Z,22.34
2022-08-28T23:44:10.881Z,22.04
2022-08-28T23:46:41.682Z,22.38
2022-08-28T23:49:11.489Z,22.66
2022-08-28T23:51:40.835Z,22.63
2022-08-28T23:54:09.414Z,22.05
2022-08-28T23:56:37.896Z,21.47
2022-08-28T23:59:06.069Z,21.35
